Time;durP1;ratioP1;P1;durP2;ratioP2;P2;SDS_P1;SDS_P2;PMS_P1;PMS_P2;Temp;Humidity;BMP_temperature;BMP_pressure;BME280_temperature;BME280_humidity;BME280_pressure;Samples;Min_cycle;Max_cycle;Signal;HPM_P1;HPM_P2
2022/11/09 00:00:00;;;;;;;6.32;4.57;;;;;;;8.00;100.00;95504.28;5103008;28;25017;-71
2022/11/09 00:02:27;;;;;;;6.43;4.20;;;;;;;8.02;100.00;95501.66;5105072;28;24434;-72
2022/11/09 00:04:55;;;;;;;6.53;4.00;;;;;;;8.07;100.00;95493.66;5109702;28;22203;-71
2022/11/09 00:07:21;;;;;;;9.07;4.70;;;;;;;8.09;100.00;95494.41;5104851;28;24441;-71
2022/11/09 00:09:48;;;;;;;8.55;4.22;;;;;;;8.13;100.00;95504.44;5109809;28;20789;-71
2022/11/09 00:12:14;;;;;;;5.60;3.85;;;;;;;8.21;100.00;95504.84;5106490;28;20766;-71
2022/11/09 00:14:41;;;;;;;6.38;3.88;;;;;;;8.25;100.00;95497.75;5107323;28;20795;-71
2022/11/09 00:17:07;;;;;;;10.25;4.38;;;;;;;8.28;100.00;95497.56;5102194;28;24418;-71
2022/11/09 00:19:34;;;;;;;7.00;4.50;;;;;;;8.30;100.00;95497.47;5107901;28;20777;-72
2022/11/09 00:22:02;;;;;;;5.95;3.70;;;;;;;8.33;100.00;95505.03;5107442;28;24986;-72
2022/11/09 00:24:28;;;;;;;5.38;3.85;;;;;;;8.32;100.00;95511.94;5111505;28;24432;-71
2022/11/09 00:26:55;;;;;;;7.97;3.90;;;;;;;8.33;100.00;95508.44;5101457;28;21150;-71
2022/11/09 00:29:21;;;;;;;7.68;3.83;;;;;;;8.29;100.00;95508.72;5108483;28;24441;-71
2022/11/09 00:31:49;;;;;;;5.47;3.58;;;;;;;8.31;100.00;95502.56;5109001;28;24438;-72
2022/11/09 00:34:15;;;;;;;4.55;4.07;;;;;;;8.29;100.00;95506.97;5104289;28;25048;-72
2022/11/09 00:36:43;;;;;;;6.68;4.30;;;;;;;8.23;100.00;95505.59;5100831;28;24430;-72
2022/11/09 00:39:11;;;;;;;7.32;4.22;;;;;;;8.19;100.00;95492.94;5102782;28;20774;-71
2022/11/09 00:41:37;;;;;;;8.77;4.05;;;;;;;8.12;100.00;95489.91;5107336;28;20806;-72
2022/11/09 00:44:04;;;;;;;5.95;4.18;;;;;;;8.11;100.00;95495.13;5099314;28;20777;-72
2022/11/09 00:46:30;;;;;;;7.18;4.55;;;;;;;8.11;100.00;95493.38;5102082;28;24457;-72
2022/11/09 00:48:57;;;;;;;5.40;4.18;;;;;;;8.13;100.00;95488.97;5102683;28;20770;-72
2022/11/09 00:51:24;;;;;;;8.95;4.40;;;;;;;8.15;100.00;95506.94;5108672;28;20817;-72
2022/11/09 00:53:53;;;;;;;4.97;4.32;;;;;;;8.21;100.00;95502.25;5107454;28;24441;-71
2022/11/09 00:56:21;;;;;;;7.45;3.75;;;;;;;8.37;100.00;95503.94;5101595;28;24846;-71
2022/11/09 00:58:47;;;;;;;4.63;3.70;;;;;;;8.34;100.00;95507.50;5096828;28;24434;-71
2022/11/09 01:01:15;;;;;;;5.23;3.33;;;;;;;8.22;100.00;95503.06;5096469;28;25063;-72
2022/11/09 01:03:42;;;;;;;5.15;3.80;;;;;;;8.22;100.00;95509.06;5098212;28;25092;-71
2022/11/09 01:06:14;;;;;;;7.57;4.10;;;;;;;8.19;100.00;95500.66;5086035;28;24438;-71
2022/11/09 01:08:41;;;;;;;5.57;3.85;;;;;;;8.24;100.00;95499.50;5093810;28;24449;-71
2022/11/09 01:11:09;;;;;;;6.53;4.00;;;;;;;8.28;100.00;95497.56;5106676;28;24556;-71
2022/11/09 01:13:38;;;;;;;4.88;3.97;;;;;;;8.18;100.00;95509.34;5108758;28;24440;-71
2022/11/09 01:16:06;;;;;;;4.47;3.67;;;;;;;8.15;100.00;95509.50;5098759;28;25014;-71
2022/11/09 01:18:33;;;;;;;5.78;3.60;;;;;;;8.18;100.00;95507.59;5102194;28;24434;-71
2022/11/09 01:21:02;;;;;;;5.15;3.78;;;;;;;8.24;100.00;95514.16;5090829;28;24430;-71
2022/11/09 01:23:29;;;;;;;4.20;3.45;;;;;;;8.33;100.00;95507.63;5091195;28;24441;-71
2022/11/09 01:25:59;;;;;;;4.78;3.67;;;;;;;8.35;100.00;95500.63;5104196;28;24811;-71
2022/11/09 01:28:26;;;;;;;7.53;3.55;;;;;;;8.35;100.00;95506.63;5108337;28;25018;-71
2022/11/09 01:30:54;;;;;;;6.70;3.60;;;;;;;8.36;100.00;95510.84;5102405;28;24450;-71
2022/11/09 01:33:21;;;;;;;6.20;3.55;;;;;;;8.32;100.00;95508.53;5093126;28;25223;-71
2022/11/09 01:35:48;;;;;;;8.30;3.80;;;;;;;8.27;100.00;95507.97;5101251;28;24809;-71
2022/11/09 01:38:14;;;;;;;3.90;3.50;;;;;;;8.30;100.00;95500.06;5104405;28;24433;-71
2022/11/09 01:40:41;;;;;;;4.00;3.13;;;;;;;8.38;100.00;95498.75;5101571;28;24445;-71
2022/11/09 01:43:15;;;;;;;6.63;3.65;;;;;;;8.40;100.00;95490.91;5095335;28;24434;-71
2022/11/09 01:45:43;;;;;;;5.18;3.45;;;;;;;8.41;100.00;95493.38;5097219;28;24441;-71
2022/11/09 01:48:14;;;;;;;4.18;3.00;;;;;;;8.47;100.00;95508.50;5105500;28;24434;-71
2022/11/09 01:50:46;;;;;;;4.68;3.15;;;;;;;8.52;100.00;95510.81;5097945;28;25021;-71
2022/11/09 01:53:17;;;;;;;4.55;3.25;;;;;;;8.53;100.00;95501.31;5099128;28;24434;-71
2022/11/09 01:55:46;;;;;;;8.75;3.35;;;;;;;8.52;100.00;95502.25;5102765;28;24934;-71
2022/11/09 01:58:17;;;;;;;5.13;3.03;;;;;;;8.49;100.00;95495.50;5104195;28;24434;-71
2022/11/09 02:00:48;;;;;;;5.15;2.97;;;;;;;8.55;100.00;95509.81;5102553;28;24440;-71
2022/11/09 02:03:22;;;;;;;4.10;3.05;;;;;;;8.50;100.00;95514.44;5097368;28;24434;-71
2022/11/09 02:05:49;;;;;;;6.70;3.38;;;;;;;8.47;100.00;95503.34;5099729;28;24430;-71
2022/11/09 02:08:19;;;;;;;5.20;3.53;;;;;;;8.48;100.00;95505.00;5103431;28;20842;-71
2022/11/09 02:10:52;;;;;;;3.55;2.97;;;;;;;8.50;100.00;95517.00;5097383;28;20791;-71
2022/11/09 02:13:21;;;;;;;4.43;3.13;;;;;;;8.50;100.00;95522.16;5103058;28;24438;-71
2022/11/09 02:15:49;;;;;;;3.67;3.25;;;;;;;8.39;100.00;95515.03;5098000;28;24816;-71
2022/11/09 02:18:18;;;;;;;4.93;3.33;;;;;;;8.33;100.00;95515.34;5104932;28;24438;-71
2022/11/09 02:20:48;;;;;;;9.52;3.40;;;;;;;8.20;100.00;95515.25;5094387;28;24437;-71
2022/11/09 02:23:15;;;;;;;6.10;3.50;;;;;;;8.07;100.00;95516.84;5100243;28;24531;-71
2022/11/09 02:25:45;;;;;;;4.30;3.33;;;;;;;8.01;100.00;95515.47;5100114;28;24440;-71
2022/11/09 02:28:11;;;;;;;4.68;3.42;;;;;;;8.07;100.00;95520.25;5100199;28;24799;-71
2022/11/09 02:30:39;;;;;;;5.03;3.40;;;;;;;8.12;100.00;95527.72;5101919;28;20798;-71
2022/11/09 02:33:05;;;;;;;6.13;3.97;;;;;;;8.20;100.00;95528.16;5101194;28;24438;-71
2022/11/09 02:35:32;;;;;;;7.35;3.90;;;;;;;8.28;100.00;95520.78;5096878;28;25001;-71
2022/11/09 02:38:00;;;;;;;5.55;3.47;;;;;;;8.32;100.00;95519.69;5103310;28;24436;-71
2022/11/09 02:40:31;;;;;;;5.03;3.30;;;;;;;8.40;100.00;95522.69;5089048;28;20808;-71
2022/11/09 02:42:59;;;;;;;3.88;3.17;;;;;;;8.47;100.00;95523.16;5095474;28;24464;-71
2022/11/09 02:45:25;;;;;;;4.40;3.60;;;;;;;8.50;100.00;95532.50;5095789;28;24437;-71
2022/11/09 02:47:52;;;;;;;4.80;3.40;;;;;;;8.67;100.00;95525.38;5093228;28;25007;-71
2022/11/09 02:50:19;;;;;;;5.70;3.17;;;;;;;8.63;100.00;95528.25;5086035;28;24465;-71
2022/11/09 02:52:45;;;;;;;4.50;3.28;;;;;;;8.64;100.00;95525.59;5093723;28;24433;-72
2022/11/09 02:55:13;;;;;;;4.18;3.33;;;;;;;8.80;100.00;95520.34;5089362;28;21325;-71
2022/11/09 02:57:40;;;;;;;5.47;3.40;;;;;;;8.60;100.00;95518.09;5092863;28;24445;-71
2022/11/09 03:00:08;;;;;;;5.28;3.58;;;;;;;8.56;100.00;95524.38;5100914;28;24430;-72
2022/11/09 03:02:35;;;;;;;4.03;3.20;;;;;;;8.49;100.00;95521.31;5101547;28;24499;-71
2022/11/09 03:05:02;;;;;;;5.57;3.30;;;;;;;8.48;100.00;95524.81;5092105;28;24445;-71
2022/11/09 03:07:28;;;;;;;4.70;2.83;;;;;;;8.48;100.00;95530.81;5102560;28;24440;-71
2022/11/09 03:09:55;;;;;;;5.35;2.90;;;;;;;8.52;100.00;95525.47;5100613;28;25022;-71
2022/11/09 03:12:29;;;;;;;3.60;3.05;;;;;;;8.55;100.00;95520.97;5100557;28;24437;-71
2022/11/09 03:14:55;;;;;;;5.15;3.17;;;;;;;8.55;100.00;95526.13;5102056;28;21091;-71
2022/11/09 03:17:22;;;;;;;5.63;3.10;;;;;;;8.46;100.00;95526.69;5103896;28;24441;-71
2022/11/09 03:19:48;;;;;;;6.40;3.20;;;;;;;8.46;100.00;95522.34;5101358;28;24448;-72
2022/11/09 03:22:15;;;;;;;5.45;3.15;;;;;;;8.50;100.00;95510.09;5106340;28;20758;-71
2022/11/09 03:24:41;;;;;;;4.10;3.00;;;;;;;8.52;100.00;95510.81;5104938;28;24434;-71
2022/11/09 03:27:08;;;;;;;3.38;3.00;;;;;;;8.55;100.00;95517.56;5103476;28;24430;-71
2022/11/09 03:29:36;;;;;;;4.80;3.22;;;;;;;8.57;100.00;95513.16;5103919;28;24434;-71
2022/11/09 03:32:03;;;;;;;3.92;2.90;;;;;;;8.62;100.00;95511.94;5096924;28;24457;-71
2022/11/09 03:34:29;;;;;;;3.63;3.00;;;;;;;8.67;100.00;95515.06;5101142;28;20769;-71
2022/11/09 03:36:56;;;;;;;4.95;3.55;;;;;;;8.65;100.00;95510.94;5103289;28;24444;-71
2022/11/09 03:39:23;;;;;;;5.82;3.58;;;;;;;8.56;100.00;95501.97;5104110;28;24438;-71
2022/11/09 03:41:49;;;;;;;9.80;3.80;;;;;;;8.54;100.00;95496.06;5106636;28;24474;-72
2022/11/09 03:44:16;;;;;;;3.72;2.90;;;;;;;8.55;100.00;95499.47;5099874;28;24441;-71
2022/11/09 03:46:44;;;;;;;7.82;3.40;;;;;;;8.46;100.00;95496.53;5098863;28;24437;-71
2022/11/09 03:49:10;;;;;;;5.28;3.40;;;;;;;8.28;100.00;95501.91;5095750;28;24445;-71
2022/11/09 03:51:37;;;;;;;5.10;3.40;;;;;;;8.14;100.00;95503.53;5088529;28;21329;-71
2022/11/09 03:54:04;;;;;;;6.68;3.80;;;;;;;8.11;100.00;95511.44;5101796;28;20766;-71
2022/11/09 03:56:30;;;;;;;6.75;3.25;;;;;;;8.00;100.00;95513.78;5106062;28;25021;-71
2022/11/09 03:58:57;;;;;;;5.22;3.42;;;;;;;7.91;100.00;95510.00;5103153;28;24772;-71
2022/11/09 04:01:23;;;;;;;4.00;3.37;;;;;;;7.89;100.00;95511.81;5098312;28;24441;-71
2022/11/09 04:03:51;;;;;;;3.77;3.07;;;;;;;7.91;100.00;95520.31;5101481;28;24437;-71
2022/11/09 04:06:18;;;;;;;4.60;3.15;;;;;;;7.95;100.00;95523.53;5100211;28;25230;-71
2022/11/09 04:08:44;;;;;;;4.80;3.13;;;;;;;7.95;100.00;95523.53;5101340;28;24984;-71
2022/11/09 04:11:11;;;;;;;4.70;3.70;;;;;;;7.93;100.00;95533.09;5097092;28;24457;-71
2022/11/09 04:13:37;;;;;;;4.93;3.10;;;;;;;7.91;100.00;95534.94;5099731;28;24430;-71
2022/11/09 04:16:04;;;;;;;4.43;2.80;;;;;;;7.94;100.00;95539.94;5103385;28;24437;-71
2022/11/09 04:18:31;;;;;;;5.70;3.83;;;;;;;7.90;100.00;95528.97;5103950;28;24442;-71
2022/11/09 04:20:59;;;;;;;5.82;3.65;;;;;;;7.92;100.00;95524.53;5101126;28;24436;-71
2022/11/09 04:23:26;;;;;;;4.35;3.33;;;;;;;7.98;100.00;95523.38;5103125;28;24796;-71
2022/11/09 04:25:53;;;;;;;3.95;3.25;;;;;;;8.04;100.00;95519.59;5099528;28;24799;-71
2022/11/09 04:28:19;;;;;;;4.13;2.93;;;;;;;8.08;100.00;95513.34;5098989;28;25009;-71
2022/11/09 04:30:46;;;;;;;3.90;3.30;;;;;;;7.92;100.00;95508.25;5102141;28;24458;-71
2022/11/09 04:33:13;;;;;;;7.28;3.55;;;;;;;7.85;100.00;95500.00;5095415;28;20770;-71
2022/11/09 04:35:39;;;;;;;4.88;3.25;;;;;;;7.93;100.00;95495.25;5101782;28;20765;-71
2022/11/09 04:38:10;;;;;;;3.72;3.30;;;;;;;8.14;100.00;95492.38;5094723;28;20774;-71
2022/11/09 04:40:37;;;;;;;6.60;3.15;;;;;;;8.15;100.00;95494.03;5098532;28;21350;-71
2022/11/09 04:43:06;;;;;;;4.65;3.30;;;;;;;8.23;100.00;95484.09;5102904;28;20766;-71
2022/11/09 04:45:34;;;;;;;4.53;3.08;;;;;;;8.16;100.00;95482.81;5097201;28;20766;-71
2022/11/09 04:48:02;;;;;;;6.13;3.45;;;;;;;8.04;100.00;95486.91;5106774;28;20765;-71
2022/11/09 04:50:29;;;;;;;5.33;2.83;;;;;;;8.00;100.00;95488.00;5092613;28;20887;-71
2022/11/09 04:53:04;;;;;;;5.32;3.10;;;;;;;7.97;100.00;95499.34;5091548;28;20817;-71
2022/11/09 04:55:32;;;;;;;4.35;3.08;;;;;;;7.91;100.00;95494.53;5101292;28;21598;-71
2022/11/09 04:57:58;;;;;;;3.60;3.00;;;;;;;7.96;100.00;95492.50;5099653;28;20773;-71
2022/11/09 05:00:26;;;;;;;4.10;2.80;;;;;;;7.92;100.00;95498.75;5097380;28;24437;-71
2022/11/09 05:02:52;;;;;;;4.22;2.97;;;;;;;7.89;100.00;95495.50;5096211;28;20772;-71
2022/11/09 05:05:19;;;;;;;5.57;2.67;;;;;;;7.90;100.00;95499.78;5095736;28;20764;-71
2022/11/09 05:07:45;;;;;;;3.87;3.00;;;;;;;7.88;100.00;95484.38;5089184;28;20771;-71
2022/11/09 05:10:12;;;;;;;4.40;2.90;;;;;;;7.94;100.00;95486.63;5088467;28;24487;-71
2022/11/09 05:12:40;;;;;;;4.63;2.83;;;;;;;8.02;100.00;95481.03;5093370;28;24446;-71
2022/11/09 05:15:07;;;;;;;7.80;2.90;;;;;;;8.02;100.00;95493.09;5095771;28;21377;-71
2022/11/09 05:17:34;;;;;;;4.05;3.10;;;;;;;7.99;100.00;95501.81;5099317;27;25013;-71
2022/11/09 05:20:00;;;;;;;4.60;2.80;;;;;;;8.07;100.00;95493.66;5105979;28;24445;-71
2022/11/09 05:25:11;;;;;;;3.72;2.50;;;;;;;8.18;100.00;95491.28;5096409;28;20806;-71
2022/11/09 05:27:39;;;;;;;2.80;2.50;;;;;;;8.21;100.00;95491.09;5105884;28;24441;-71
2022/11/09 05:30:07;;;;;;;3.20;2.70;;;;;;;8.18;100.00;95488.69;5100577;28;24449;-71
2022/11/09 05:32:36;;;;;;;3.90;3.17;;;;;;;8.17;100.00;95485.28;5098560;28;24442;-71
2022/11/09 05:35:02;;;;;;;4.70;3.13;;;;;;;8.24;100.00;95491.75;5094150;28;24433;-71
2022/11/09 05:37:29;;;;;;;6.60;3.00;;;;;;;8.28;100.00;95487.25;5102936;28;24437;-72
2022/11/09 05:39:55;;;;;;;5.57;2.83;;;;;;;8.22;100.00;95492.75;5097238;28;21149;-72
2022/11/09 05:42:23;;;;;;;3.95;2.67;;;;;;;8.25;100.00;95497.75;5091638;28;24437;-72
2022/11/09 05:44:51;;;;;;;4.10;2.80;;;;;;;8.25;100.00;95497.75;5100404;28;24445;-71
2022/11/09 05:47:19;;;;;;;6.68;2.55;;;;;;;8.27;100.00;95495.06;5099496;28;24971;-71
2022/11/09 05:49:45;;;;;;;5.05;2.75;;;;;;;8.28;100.00;95492.41;5103095;28;24474;-71
2022/11/09 05:52:12;;;;;;;3.90;2.85;;;;;;;8.29;100.00;95495.81;5099924;28;24481;-71
2022/11/09 05:54:38;;;;;;;4.40;2.78;;;;;;;8.28;100.00;95492.41;5089224;28;24437;-71
2022/11/09 05:57:05;;;;;;;4.65;2.75;;;;;;;8.25;100.00;95505.47;5101130;28;24432;-71
2022/11/09 05:59:31;;;;;;;4.47;2.60;;;;;;;8.26;100.00;95520.03;5101272;28;24441;-71
2022/11/09 06:01:59;;;;;;;3.78;2.67;;;;;;;8.30;100.00;95529.25;5101181;28;24986;-73
2022/11/09 06:04:25;;;;;;;5.45;2.75;;;;;;;8.31;100.00;95522.38;5100601;28;20777;-71
2022/11/09 06:06:52;;;;;;;3.38;2.88;;;;;;;8.28;100.00;95528.53;5097135;28;24430;-72
2022/11/09 06:09:18;;;;;;;10.07;3.78;;;;;;;8.26;100.00;95530.34;5082095;28;24986;-71
2022/11/09 06:11:45;;;;;;;5.13;2.72;;;;;;;8.29;100.00;95522.44;5084859;28;24465;-71
2022/11/09 06:14:11;;;;;;;4.05;2.75;;;;;;;8.33;100.00;95518.78;5085533;28;24433;-71
2022/11/09 06:16:38;;;;;;;4.53;2.72;;;;;;;8.37;100.00;95524.59;5092160;28;24426;-71
2022/11/09 06:19:06;;;;;;;3.75;2.90;;;;;;;8.38;100.00;95527.13;5093013;28;24436;-72
2022/11/09 06:21:32;;;;;;;6.53;3.15;;;;;;;8.35;100.00;95529.84;5091769;28;24429;-71
2022/11/09 06:23:59;;;;;;;4.15;2.75;;;;;;;8.41;100.00;95536.41;5093256;28;24449;-71
2022/11/09 06:26:25;;;;;;;4.57;2.63;;;;;;;8.46;100.00;95534.41;5091818;28;24437;-71
2022/11/09 06:28:52;;;;;;;3.53;2.63;;;;;;;8.50;100.00;95535.91;5094355;28;24469;-71
2022/11/09 06:31:19;;;;;;;5.88;2.83;;;;;;;8.48;100.00;95543.72;5103862;28;25013;-71
2022/11/09 06:33:46;;;;;;;4.63;2.78;;;;;;;8.53;100.00;95542.63;5101675;28;20770;-72
2022/11/09 06:36:14;;;;;;;3.60;2.35;;;;;;;8.55;100.00;95541.63;5100191;28;20754;-75
2022/11/09 06:38:40;;;;;;;3.35;2.78;;;;;;;8.56;100.00;95547.59;5100340;28;24433;-77
2022/11/09 06:41:07;;;;;;;11.48;8.35;;;;;;;8.54;100.00;95554.63;5102665;28;20770;-74
2022/11/09 06:43:34;;;;;;;14.85;10.15;;;;;;;8.58;100.00;95566.44;5099233;28;25145;-76
2022/11/09 06:46:03;;;;;;;7.60;3.70;;;;;;;8.60;100.00;95561.97;5100952;28;24441;-77
2022/11/09 06:48:29;;;;;;;4.77;3.07;;;;;;;8.60;100.00;95569.72;5104144;28;24434;-77
2022/11/09 06:50:59;;;;;;;4.23;2.63;;;;;;;8.56;100.00;95578.56;5098678;28;24555;-72
2022/11/09 06:53:28;;;;;;;5.03;3.60;;;;;;;8.55;100.00;95605.31;5089357;28;24441;-72
2022/11/09 06:55:57;;;;;;;5.22;3.15;;;;;;;8.60;100.00;95629.09;5091706;28;24442;-72
2022/11/09 06:58:24;;;;;;;5.65;3.08;;;;;;;8.55;100.00;95629.38;5099716;28;24433;-72
2022/11/09 07:00:51;;;;;;;3.90;2.80;;;;;;;8.56;100.00;95631.03;5095093;28;21360;-72
2022/11/09 07:03:19;;;;;;;2.90;2.22;;;;;;;8.72;100.00;95616.34;5098224;28;20762;-73
2022/11/09 07:05:47;;;;;;;3.13;2.83;;;;;;;8.89;100.00;95620.50;5097130;28;20853;-71
2022/11/09 07:08:14;;;;;;;4.25;2.80;;;;;;;8.85;100.00;95621.59;5103628;28;24437;-71
2022/11/09 07:10:42;;;;;;;3.47;2.42;;;;;;;8.86;100.00;95620.72;5085016;28;24439;-72
2022/11/09 07:13:09;;;;;;;4.50;2.60;;;;;;;8.91;100.00;95626.44;5089597;28;20790;-72
2022/11/09 07:15:37;;;;;;;5.47;2.30;;;;;;;8.91;100.00;95633.34;5097055;28;24437;-73
2022/11/09 07:18:06;;;;;;;3.67;2.60;;;;;;;8.95;100.00;95633.06;5100437;28;24426;-72
2022/11/09 07:20:33;;;;;;;3.20;2.50;;;;;;;8.92;100.00;95632.41;5099901;28;24475;-72
2022/11/09 07:22:59;;;;;;;4.75;2.65;;;;;;;9.10;100.00;95628.75;5108051;28;24436;-73
2022/11/09 07:25:26;;;;;;;4.38;2.83;;;;;;;9.16;100.00;95627.56;5102485;28;24449;-72
2022/11/09 07:27:54;;;;;;;3.75;2.53;;;;;;;9.06;100.00;95627.28;5097058;28;24465;-72
2022/11/09 07:30:21;;;;;;;3.77;2.30;;;;;;;9.06;100.00;95624.69;5099689;28;20896;-73
2022/11/09 07:32:47;;;;;;;3.63;2.50;;;;;;;9.03;100.00;95624.03;5099296;28;24457;-73
2022/11/09 07:35:13;;;;;;;4.67;3.10;;;;;;;9.05;100.00;95627.34;5090847;28;20831;-71
2022/11/09 07:37:40;;;;;;;4.60;2.75;;;;;;;9.06;100.00;95622.13;5095979;28;24470;-72
2022/11/09 07:40:08;;;;;;;3.60;2.20;;;;;;;9.10;100.00;95621.00;5102825;28;24440;-73
2022/11/09 07:42:35;;;;;;;3.97;2.60;;;;;;;9.11;100.00;95624.41;5103410;28;20763;-72
2022/11/09 07:45:03;;;;;;;3.30;2.80;;;;;;;9.14;100.00;95625.06;5095353;28;24445;-73
2022/11/09 07:47:30;;;;;;;4.00;3.20;;;;;;;9.15;100.00;95624.13;5100017;28;24875;-72
2022/11/09 07:49:56;;;;;;;6.15;4.25;;;;;;;9.17;100.00;95629.22;5096786;28;24438;-73
2022/11/09 07:52:23;;;;;;;6.22;3.60;;;;;;;9.16;100.00;95630.16;5099391;28;25015;-73
2022/11/09 07:54:49;;;;;;;3.75;3.08;;;;;;;9.20;100.00;95626.47;5103000;28;24438;-75
2022/11/09 07:57:16;;;;;;;6.90;3.20;;;;;;;9.15;100.00;95624.13;5095207;28;24916;-73
2022/11/09 07:59:43;;;;;;;4.28;3.08;;;;;;;9.19;100.00;95630.78;5090252;28;24441;-73
2022/11/09 08:02:11;;;;;;;3.72;2.47;;;;;;;9.14;100.00;95632.81;5087087;28;24529;-73
2022/11/09 08:04:37;;;;;;;4.72;2.90;;;;;;;9.16;100.00;95627.56;5097152;28;24437;-73
2022/11/09 08:07:04;;;;;;;3.25;2.80;;;;;;;9.15;100.00;95618.97;5103954;28;24978;-73
2022/11/09 08:09:30;;;;;;;4.68;3.17;;;;;;;9.25;100.00;95616.69;5101270;28;24437;-75
2022/11/09 08:11:57;;;;;;;5.00;3.67;;;;;;;9.31;100.00;95613.72;5103075;28;24457;-71
2022/11/09 08:14:23;;;;;;;5.45;3.10;;;;;;;9.29;100.00;95622.50;5098906;28;24434;-71
2022/11/09 08:16:51;;;;;;;4.85;2.92;;;;;;;9.33;100.00;95618.78;5095409;28;24815;-72
2022/11/09 08:19:19;;;;;;;3.90;2.90;;;;;;;9.29;100.00;95623.31;5095167;28;24449;-72
2022/11/09 08:21:45;;;;;;;4.00;2.80;;;;;;;9.33;100.00;95621.38;5104245;28;20766;-73
2022/11/09 08:24:12;;;;;;;6.53;3.03;;;;;;;9.39;100.00;95618.44;5101801;28;24479;-71
2022/11/09 08:26:38;;;;;;;3.90;2.47;;;;;;;9.35;100.00;95617.78;5100019;28;24441;-71
2022/11/09 08:29:05;;;;;;;3.53;2.53;;;;;;;9.36;100.00;95610.88;5105330;28;24445;-72
2022/11/09 08:31:31;;;;;;;3.90;2.17;;;;;;;9.39;100.00;95611.50;5094541;28;20781;-71
2022/11/09 08:33:58;;;;;;;3.60;2.50;;;;;;;9.41;100.00;95616.56;5100394;28;24457;-71
2022/11/09 08:36:28;;;;;;;4.30;2.40;;;;;;;9.44;100.00;95624.97;5091037;28;24441;-71
2022/11/09 08:38:54;;;;;;;3.72;2.50;;;;;;;9.51;100.00;95614.28;5092228;28;25065;-71
2022/11/09 08:41:21;;;;;;;3.90;1.98;;;;;;;9.52;100.00;95618.50;5084166;28;25047;-71
2022/11/09 08:43:47;;;;;;;6.10;2.75;;;;;;;9.57;100.00;95619.09;5100443;28;24433;-72
2022/11/09 08:46:14;;;;;;;4.47;2.72;;;;;;;9.61;100.00;95612.78;5099592;28;24434;-73
2022/11/09 08:48:40;;;;;;;5.32;4.22;;;;;;;9.61;100.00;95618.78;5097917;28;24442;-71
2022/11/09 08:51:07;;;;;;;8.90;4.05;;;;;;;9.66;100.00;95634.03;5102523;28;24440;-71
2022/11/09 08:53:35;;;;;;;4.70;2.50;;;;;;;9.63;100.00;95639.38;5098474;28;24517;-72
2022/11/09 08:56:01;;;;;;;7.35;3.78;;;;;;;9.63;100.00;95640.19;5101998;28;24441;-71
2022/11/09 08:58:28;;;;;;;4.10;2.40;;;;;;;9.62;100.00;95645.47;5087336;28;24435;-72
2022/11/09 09:00:54;;;;;;;4.68;2.00;;;;;;;9.61;100.00;95644.66;5094051;28;24439;-71
2022/11/09 09:03:21;;;;;;;5.70;2.53;;;;;;;9.64;100.00;95651.38;5103792;28;25004;-71
2022/11/09 09:05:47;;;;;;;14.18;8.43;;;;;;;9.63;100.00;95650.53;5083075;28;24437;-73
2022/11/09 09:08:15;;;;;;;8.73;5.20;;;;;;;9.62;100.00;95653.22;5105503;28;24433;-72
2022/11/09 09:10:43;;;;;;;5.72;3.03;;;;;;;9.64;100.00;95659.97;5100466;28;24438;-72
2022/11/09 09:13:10;;;;;;;5.30;3.28;;;;;;;9.66;100.00;95672.81;5100143;28;25006;-72
2022/11/09 09:15:36;;;;;;;2.17;1.55;;;;;;;9.69;100.00;95670.03;5097821;28;24498;-72
2022/11/09 09:18:03;;;;;;;2.50;1.58;;;;;;;9.69;100.00;95673.44;5101815;28;24430;-72
2022/11/09 09:20:30;;;;;;;4.38;3.08;;;;;;;9.78;100.00;95663.47;5101970;28;24433;-72
2022/11/09 09:22:58;;;;;;;6.47;2.60;;;;;;;9.85;100.00;95668.16;5095801;28;24433;-71
2022/11/09 09:25:24;;;;;;;2.55;1.52;;;;;;;9.96;100.00;95656.34;5102070;28;24429;-72
2022/11/09 09:27:52;;;;;;;2.38;1.38;;;;;;;10.00;100.00;95665.56;5105146;28;24426;-71
2022/11/09 09:30:19;;;;;;;2.87;1.70;;;;;;;10.03;100.00;95665.38;5095798;28;24793;-72
2022/11/09 09:32:46;;;;;;;3.20;1.38;;;;;;;10.07;100.00;95664.25;5100431;28;24446;-72
2022/11/09 09:35:13;;;;;;;1.98;1.17;;;;;;;10.12;100.00;95657.88;5108516;28;24433;-72
2022/11/09 09:37:39;;;;;;;1.10;0.90;;;;;;;10.17;100.00;95660.16;5104125;28;24428;-71
2022/11/09 09:40:06;;;;;;;2.97;1.70;;;;;;;10.25;100.00;95663.13;5108860;28;24440;-72
2022/11/09 09:42:36;;;;;;;4.63;3.30;;;;;;;10.32;100.00;95663.59;5103960;28;24428;-72
2022/11/09 09:45:10;;;;;;;5.07;2.88;;;;;;;10.31;100.00;95665.34;5085850;28;24441;-72
2022/11/09 09:47:47;;;;;;;2.97;1.30;;;;;;;10.36;100.00;95659.88;5103920;28;25022;-72
2022/11/09 09:50:18;;;;;;;2.20;1.42;;;;;;;10.45;100.00;95685.16;5101412;28;25058;-72
2022/11/09 09:52:55;;;;;;;2.50;2.08;;;;;;;10.47;100.00;95666.94;5098328;28;24549;-72
2022/11/09 09:55:29;;;;;;;2.80;1.75;;;;;;;10.54;100.00;95665.63;5101786;28;24430;-72
2022/11/09 09:58:03;;;;;;;3.10;2.20;;;;;;;10.65;100.00;95665.78;5099831;28;24447;-72
2022/11/09 10:00:33;;;;;;;3.85;2.00;;;;;;;10.71;100.00;95659.34;5108526;28;24433;-72
2022/11/09 10:03:00;;;;;;;2.42;2.00;;;;;;;10.78;100.00;95660.59;5100534;28;24988;-72
2022/11/09 10:05:41;;;;;;;4.18;2.78;;;;;;;10.83;100.00;95664.56;5101165;28;24417;-72
2022/11/09 10:08:13;;;;;;;4.25;2.53;;;;;;;10.82;100.00;95668.06;5090478;28;24432;-72
2022/11/09 10:10:45;;;;;;;4.13;2.75;;;;;;;10.90;100.00;95665.84;5106662;28;24447;-72
2022/11/09 10:13:27;;;;;;;2.35;2.15;;;;;;;10.94;100.00;95668.19;5105112;28;24452;-72
2022/11/09 10:16:01;;;;;;;3.92;2.50;;;;;;;10.96;100.00;95658.56;5098505;28;24525;-72
2022/11/09 10:18:43;;;;;;;3.65;2.25;;;;;;;11.05;100.00;95660.53;5101369;28;24429;-72
2022/11/09 10:21:23;;;;;;;4.70;2.47;;;;;;;11.14;100.00;95660.78;5093287;28;24433;-72
2022/11/09 10:24:03;;;;;;;4.25;2.67;;;;;;;11.18;100.00;95653.63;5102719;28;24437;-72
2022/11/09 10:26:41;;;;;;;4.55;2.40;;;;;;;11.26;100.00;95660.88;5102457;28;24434;-72
2022/11/09 10:29:21;;;;;;;3.28;2.20;;;;;;;11.32;100.00;95650.94;5099760;28;24434;-72
2022/11/09 10:31:51;;;;;;;4.93;2.50;;;;;;;11.34;100.00;95654.25;5105651;28;24430;-72
2022/11/09 10:34:20;;;;;;;2.83;2.00;;;;;;;11.35;100.00;95649.91;5107150;28;24453;-72
2022/11/09 10:36:55;;;;;;;4.80;2.30;;;;;;;11.41;100.00;95648.66;5107201;28;24441;-72
2022/11/09 10:39:26;;;;;;;5.00;2.53;;;;;;;11.42;100.00;95639.94;5102830;28;24438;-72
2022/11/09 10:41:52;;;;;;;3.50;2.23;;;;;;;11.42;100.00;95645.97;5103225;28;24987;-72
2022/11/09 10:44:20;;;;;;;6.45;2.53;;;;;;;11.49;100.00;95644.59;5107408;28;24426;-72
2022/11/09 10:47:10;;;;;;;3.72;2.45;;;;;;;11.60;100.00;95636.06;5104925;28;24521;-72
2022/11/09 10:49:37;;;;;;;3.77;2.50;;;;;;;11.61;100.00;95635.16;5098733;28;24482;-72
2022/11/09 10:52:04;;;;;;;4.05;2.70;;;;;;;11.61;100.00;95638.59;5102689;28;24434;-72
2022/11/09 10:54:34;;;;;;;7.93;3.25;;;;;;;11.65;100.00;95634.00;5097178;28;24438;-72
2022/11/09 10:57:09;;;;;;;4.10;3.07;;;;;;;11.63;100.00;95633.28;5103563;28;24430;-72
2022/11/09 10:59:56;;;;;;;7.85;3.22;;;;;;;11.63;100.00;95628.91;5108805;28;24433;-72
2022/11/09 11:02:41;;;;;;;5.20;3.10;;;;;;;11.65;100.00;95628.81;5104029;28;24432;-72
2022/11/09 11:05:30;;;;;;;4.53;2.90;;;;;;;11.67;100.00;95629.53;5078749;28;24441;-72
2022/11/09 11:07:58;;;;;;;4.90;3.05;;;;;;;11.69;100.00;95629.44;5088094;28;24434;-73
2022/11/09 11:10:25;;;;;;;4.03;3.00;;;;;;;11.67;100.00;95626.94;5090013;28;24440;-72
2022/11/09 11:13:18;;;;;;;4.07;2.78;;;;;;;11.71;100.00;95625.78;5094076;28;24442;-72
2022/11/09 11:15:45;;;;;;;4.03;2.60;;;;;;;11.71;100.00;95615.41;5091868;28;24452;-72
2022/11/09 11:18:18;;;;;;;5.22;2.92;;;;;;;11.70;100.00;95608.56;5094856;28;24429;-73
2022/11/09 11:20:45;;;;;;;4.07;2.78;;;;;;;11.73;100.00;95613.56;5099133;28;24453;-72
2022/11/09 11:23:14;;;;;;;5.30;2.50;;;;;;;11.81;100.00;95611.25;5087128;28;24985;-72
2022/11/09 11:25:57;;;;;;;3.95;2.90;;;;;;;11.79;100.00;95607.09;5099155;28;24485;-72
2022/11/09 11:28:31;;;;;;;4.30;2.88;;;;;;;11.83;100.00;95609.41;5097435;28;24807;-72
2022/11/09 11:30:58;;;;;;;8.35;3.00;;;;;;;11.80;100.00;95604.41;5097470;28;24430;-72
2022/11/09 11:33:26;;;;;;;4.13;2.35;;;;;;;11.92;100.00;95609.69;5086487;28;24820;-72
2022/11/09 11:35:58;;;;;;;3.67;2.77;;;;;;;11.90;100.00;95608.97;5103624;28;24607;-72
2022/11/09 11:38:30;;;;;;;4.13;2.73;;;;;;;11.97;100.00;95603.22;5099418;28;24438;-72